createdAt,value
2018-04-12T16:02:22.785Z,43.05
2018-04-12T16:03:25.737Z,45.67
2018-04-12T16:06:11.477Z,40.50
2018-04-12T16:08:39.091Z,38.57
2018-04-12T16:11:07.297Z,38.73
2018-04-12T16:13:34.781Z,38.90
2018-04-12T16:16:02.226Z,40.80
2018-04-12T16:18:29.701Z,37.83
2018-04-12T16:20:57.141Z,36.90
2018-04-12T16:23:24.609Z,38.30
2018-04-12T16:25:52.053Z,34.40
2018-04-12T16:28:19.522Z,37.50
2018-04-12T16:30:46.965Z,38.30
2018-04-12T16:33:14.483Z,35.77
2018-04-12T16:35:42.687Z,33.03
2018-04-12T16:38:10.150Z,33.27
2018-04-12T16:40:37.929Z,37.90
2018-04-12T16:43:05.373Z,38.40
2018-04-12T16:45:32.860Z,32.70
2018-04-12T16:48:00.293Z,36.10
2018-04-12T16:50:27.747Z,33.30
2018-04-12T16:52:55.208Z,35.20
2018-04-12T16:55:22.686Z,33.40
2018-04-12T16:57:50.131Z,33.90
2018-04-12T17:00:17.606Z,32.57
2018-04-12T17:02:45.046Z,34.67
2018-04-12T17:05:12.531Z,33.73
2018-04-12T17:07:39.982Z,32.87
2018-04-12T17:10:07.512Z,34.37
2018-04-12T17:12:34.937Z,34.17
2018-04-12T17:15:03.183Z,29.33
2018-04-12T17:17:30.617Z,31.83
2018-04-12T17:19:58.688Z,29.30
2018-04-12T17:22:26.154Z,28.90
2018-04-12T17:24:53.602Z,31.80
2018-04-12T17:27:21.045Z,27.70
2018-04-12T17:29:48.486Z,30.03
2018-04-12T17:32:15.999Z,30.83
2018-04-12T17:34:43.549Z,27.13
2018-04-12T17:37:10.994Z,29.17
2018-04-12T17:39:38.471Z,32.33
2018-04-12T17:42:06.029Z,28.47
2018-04-12T17:44:33.583Z,25.87
2018-04-12T17:47:01.026Z,30.37
2018-04-12T17:49:29.334Z,23.07
2018-04-12T17:51:56.785Z,26.33
2018-04-12T17:54:24.234Z,28.43
2018-04-12T17:56:51.685Z,27.97
2018-04-12T17:59:19.128Z,24.23
2018-04-12T18:01:46.593Z,24.43
2018-04-12T18:04:14.035Z,26.63
2018-04-12T18:06:41.485Z,32.27
2018-04-12T18:09:08.977Z,30.40
2018-04-12T18:11:36.558Z,27.87
2018-04-12T18:14:04.801Z,28.97
2018-04-12T18:16:32.271Z,24.97
2018-04-12T18:18:59.738Z,26.43
2018-04-12T18:21:38.844Z,22.10
2018-04-12T18:24:07.041Z,22.97
2018-04-12T18:26:34.575Z,24.10
2018-04-12T18:29:02.435Z,21.60
2018-04-12T18:31:29.923Z,24.37
2018-04-12T18:33:57.370Z,23.07
2018-04-12T18:36:24.816Z,23.60
2018-04-12T18:38:52.257Z,24.20
2018-04-12T18:41:19.753Z,23.33
2018-04-12T18:43:47.197Z,23.20
2018-04-12T18:46:14.809Z,23.90
2018-04-12T18:48:42.219Z,22.90
2018-04-12T18:51:09.669Z,24.80
2018-04-12T18:53:37.105Z,24.30
2018-04-12T18:56:04.565Z,22.43
2018-04-12T18:58:32.038Z,25.87
2018-04-12T19:01:01.319Z,22.13
2018-04-12T19:03:29.513Z,25.70
2018-04-12T19:05:56.981Z,24.87
2018-04-12T19:08:24.686Z,29.13
2018-04-12T19:10:52.130Z,25.23
2018-04-12T19:13:19.606Z,26.67
2018-04-12T19:15:47.042Z,23.60
2018-04-12T19:18:14.664Z,26.13
2018-04-12T19:20:42.135Z,23.00
2018-04-12T19:23:09.569Z,22.70
2018-04-12T19:25:37.049Z,15.47
2018-04-12T19:28:04.527Z,25.97
2018-04-12T19:30:31.982Z,24.27
2018-04-12T19:32:59.537Z,20.03
2018-04-12T19:35:26.990Z,16.53
2018-04-12T19:37:54.461Z,18.03
2018-04-12T19:40:22.052Z,16.93
2018-04-12T19:42:49.580Z,17.93
2018-04-12T19:45:17.021Z,19.83
2018-04-12T19:47:44.470Z,20.57
2018-04-12T19:50:14.042Z,25.07
2018-04-12T19:52:41.469Z,21.43
2018-04-12T19:55:10.430Z,21.23
2018-04-12T19:57:37.905Z,21.70
2018-04-12T20:00:05.366Z,18.53
2018-04-12T20:02:32.922Z,19.93
2018-04-12T20:05:00.383Z,18.53
2018-04-12T20:07:27.819Z,20.67
2018-04-12T20:09:55.271Z,19.20
2018-04-12T20:12:22.723Z,19.00
2018-04-12T20:14:50.158Z,22.17
2018-04-12T20:17:17.605Z,20.57
2018-04-12T20:19:45.855Z,19.07
2018-04-12T20:22:13.405Z,19.20
2018-04-12T20:24:40.867Z,20.40
2018-04-12T20:27:08.322Z,24.17
2018-04-12T20:29:35.762Z,23.17
2018-04-12T20:32:03.230Z,18.83
2018-04-12T20:34:30.698Z,21.70
2018-04-12T20:36:58.150Z,24.03
2018-04-12T20:39:25.589Z,20.90
2018-04-12T20:41:53.070Z,18.87
2018-04-12T20:44:20.513Z,22.53
2018-04-12T20:46:48.052Z,21.07
2018-04-12T20:49:15.443Z,20.87
2018-04-12T20:51:43.002Z,21.13
2018-04-12T20:54:10.441Z,18.97
2018-04-12T20:56:37.910Z,20.87
2018-04-12T20:59:05.361Z,21.87
2018-04-12T21:01:32.803Z,19.83
2018-04-12T21:04:00.246Z,21.97
2018-04-12T21:06:27.745Z,19.77
2018-04-12T21:08:55.194Z,22.10
2018-04-12T21:11:22.650Z,24.27
2018-04-12T21:13:50.099Z,20.83
2018-04-12T21:16:17.578Z,23.00
2018-04-12T21:18:45.018Z,19.73
2018-04-12T21:21:12.501Z,19.07
2018-04-12T21:23:39.946Z,18.80
2018-04-12T21:26:07.389Z,24.57
2018-04-12T21:28:34.941Z,21.57
2018-04-12T21:31:02.394Z,18.47
2018-04-12T21:33:29.890Z,21.20
2018-04-12T21:35:57.444Z,20.13
2018-04-12T21:38:25.014Z,20.80
2018-04-12T21:40:52.569Z,21.77
2018-04-12T21:43:20.022Z,20.30
2018-04-12T21:45:47.465Z,19.27
2018-04-12T21:48:14.947Z,21.40
2018-04-12T21:50:44.998Z,20.23
2018-04-12T21:53:12.433Z,24.00
2018-04-12T21:55:39.885Z,22.30
2018-04-12T21:58:08.233Z,18.77
2018-04-12T22:00:35.679Z,19.30
2018-04-12T22:03:03.555Z,20.30
2018-04-12T22:05:30.985Z,27.20
2018-04-12T22:07:59.233Z,23.90
2018-04-12T22:10:27.139Z,20.37
2018-04-12T22:12:54.638Z,26.67
2018-04-12T22:15:22.079Z,17.23
2018-04-12T22:17:49.524Z,4.47
2018-04-12T22:20:17.010Z,5.43
2018-04-12T22:22:44.456Z,5.77
2018-04-12T22:25:11.890Z,6.53
2018-04-12T22:27:39.330Z,5.83
2018-04-12T22:30:07.534Z,8.97
2018-04-12T22:32:34.988Z,5.00
2018-04-12T22:35:02.566Z,2.83
2018-04-12T22:37:30.043Z,4.00
2018-04-12T22:39:57.601Z,4.80
2018-04-12T22:42:25.145Z,7.70
2018-04-12T22:44:52.583Z,2.90
2018-04-12T22:47:20.038Z,4.40
2018-04-12T22:49:47.479Z,3.33
2018-04-12T22:52:15.689Z,4.93
2018-04-12T22:54:43.125Z,6.40
2018-04-12T22:57:10.571Z,4.70
2018-04-12T22:59:38.000Z,1.90
2018-04-12T23:02:05.537Z,3.40
2018-04-12T23:04:32.990Z,6.97
2018-04-12T23:07:00.455Z,2.97
2018-04-12T23:09:27.885Z,2.90
2018-04-12T23:11:55.365Z,3.93
2018-04-12T23:14:22.797Z,6.67
2018-04-12T23:16:50.237Z,6.20
2018-04-12T23:19:17.734Z,5.77
2018-04-12T23:21:45.706Z,3.63
2018-04-12T23:24:13.142Z,4.53
2018-04-12T23:26:43.342Z,5.53
2018-04-12T23:29:10.773Z,6.37
2018-04-12T23:31:38.218Z,5.33
2018-04-12T23:34:05.757Z,4.27
2018-04-12T23:36:33.199Z,4.63
2018-04-12T23:39:01.173Z,4.10
2018-04-12T23:41:28.609Z,5.07
2018-04-12T23:43:56.716Z,3.43
2018-04-12T23:46:24.159Z,4.70
2018-04-12T23:48:51.601Z,5.77
2018-04-12T23:51:19.035Z,6.77
2018-04-12T23:53:47.883Z,5.17
2018-04-12T23:56:15.338Z,4.67
2018-04-12T23:58:42.788Z,5.93
